Time;durP1;ratioP1;P1;durP2;ratioP2;P2;SDS_P1;SDS_P2;PMS_P1;PMS_P2;Temp;Humidity;BMP_temperature;BMP_pressure;BME280_temperature;BME280_humidity;BME280_pressure;Samples;Min_cycle;Max_cycle;Signal;HPM_P1;HPM_P2
2023/07/01 00:02:12;;;;;;;4.80;4.20;;;16.20;37.20;;;;;;5011418;28;20271;-73
2023/07/01 00:04:38;;;;;;;3.50;2.90;;;16.20;37.70;;;;;;5011939;28;20207;-72
2023/07/01 00:07:04;;;;;;;4.47;3.10;;;16.20;37.80;;;;;;5011751;28;20773;-72
2023/07/01 00:09:30;;;;;;;5.73;3.90;;;16.20;37.40;;;;;;5011739;28;20581;-73
2023/07/01 00:11:55;;;;;;;4.00;3.40;;;16.20;36.90;;;;;;5011423;28;20210;-73
2023/07/01 00:14:21;;;;;;;4.80;2.93;;;16.30;36.70;;;;;;5013130;28;20653;-73
2023/07/01 00:16:46;;;;;;;5.13;3.40;;;16.30;35.90;;;;;;5015537;28;20174;-72
2023/07/01 00:19:12;;;;;;;4.43;3.60;;;16.30;36.50;;;;;;5015399;28;20251;-73
2023/07/01 00:21:38;;;;;;;4.87;3.67;;;16.40;35.10;;;;;;5015142;28;20182;-73
2023/07/01 00:24:03;;;;;;;5.30;3.80;;;16.40;34.60;;;;;;5015295;28;20179;-73
2023/07/01 00:26:29;;;;;;;5.00;2.80;;;16.40;34.10;;;;;;5015261;28;20172;-73
2023/07/01 00:28:54;;;;;;;5.77;3.30;;;16.40;35.40;;;;;;5015239;28;20208;-73
2023/07/01 00:31:20;;;;;;;11.03;3.80;;;16.40;32.90;;;;;;5014976;28;20250;-73
2023/07/01 00:33:46;;;;;;;4.10;3.27;;;16.40;33.60;;;;;;5014948;28;20214;-73
2023/07/01 00:36:11;;;;;;;5.50;3.70;;;16.40;32.90;;;;;;5015373;28;20219;-73
2023/07/01 00:38:37;;;;;;;5.27;3.33;;;16.50;32.40;;;;;;5015065;28;20406;-72
2023/07/01 00:41:02;;;;;;;5.10;3.37;;;16.50;32.40;;;;;;5014886;28;20196;-73
2023/07/01 00:43:28;;;;;;;5.33;3.03;;;16.50;31.40;;;;;;5014747;28;20638;-73
2023/07/01 00:45:54;;;;;;;4.20;2.77;;;16.50;32.30;;;;;;5014882;28;20263;-73
2023/07/01 00:48:25;;;;;;;6.03;3.90;;;16.50;31.90;;;;;;5014991;28;20176;-73
2023/07/01 00:50:52;;;;;;;4.93;3.17;;;16.50;30.90;;;;;;5014756;28;20754;-74
2023/07/01 00:53:19;;;;;;;4.23;3.10;;;16.50;30.60;;;;;;5014485;28;20460;-74
2023/07/01 00:55:44;;;;;;;4.77;2.90;;;16.40;31.30;;;;;;5015024;28;20407;-73
2023/07/01 00:58:10;;;;;;;3.93;2.87;;;16.40;32.50;;;;;;5014638;28;20524;-73
2023/07/01 01:00:36;;;;;;;3.87;2.50;;;16.40;32.30;;;;;;5014472;28;20689;-73
2023/07/01 01:03:07;;;;;;;4.67;3.23;;;16.40;33.10;;;;;;5014300;28;20191;-73
2023/07/01 01:05:45;;;;;;;4.90;2.40;;;16.30;31.20;;;;;;5014622;28;20447;-73
2023/07/01 01:08:35;;;;;;;4.13;3.57;;;16.30;33.40;;;;;;5014537;28;20399;-73
2023/07/01 01:11:02;;;;;;;4.87;3.20;;;16.30;32.60;;;;;;5014370;28;20457;-73
2023/07/01 01:13:29;;;;;;;6.33;3.23;;;16.30;32.50;;;;;;5014203;28;20861;-73
2023/07/01 01:16:00;;;;;;;4.53;3.50;;;16.20;32.10;;;;;;5014422;28;20770;-73
2023/07/01 01:18:30;;;;;;;3.30;2.47;;;16.20;32.60;;;;;;5014365;28;20407;-74
2023/07/01 01:20:57;;;;;;;3.17;2.40;;;16.10;33.30;;;;;;5014259;28;20529;-73
2023/07/01 01:23:36;;;;;;;4.03;2.73;;;16.10;33.70;;;;;;5014028;28;20787;-74
2023/07/01 01:26:15;;;;;;;3.27;2.77;;;16.10;33.70;;;;;;5014202;28;20477;-74
2023/07/01 01:28:40;;;;;;;6.33;3.33;;;16.30;33.00;;;;;;5014133;28;20783;-73
2023/07/01 01:31:06;;;;;;;4.20;3.07;;;16.30;33.40;;;;;;5013904;28;20454;-74
2023/07/01 01:33:31;;;;;;;3.70;3.10;;;16.40;31.70;;;;;;5013977;28;20630;-74
2023/07/01 01:36:06;;;;;;;3.60;2.73;;;16.50;31.90;;;;;;5014042;28;20204;-74
2023/07/01 01:38:35;;;;;;;4.63;3.10;;;16.50;31.40;;;;;;5014073;28;20197;-74
2023/07/01 01:41:06;;;;;;;6.60;3.67;;;16.50;31.40;;;;;;5013766;28;20451;-73
2023/07/01 01:43:47;;;;;;;4.00;3.03;;;16.50;31.40;;;;;;5013587;28;20933;-74
2023/07/01 01:46:15;;;;;;;3.90;3.13;;;16.60;30.40;;;;;;5013897;28;20430;-74
2023/07/01 01:48:41;;;;;;;8.70;3.10;;;16.60;29.90;;;;;;5013785;28;20418;-73
2023/07/01 01:51:08;;;;;;;5.37;2.90;;;16.60;30.00;;;;;;5013660;28;20454;-73
2023/07/01 01:53:37;;;;;;;4.47;2.63;;;16.70;29.20;;;;;;5013372;28;20203;-73
2023/07/01 01:56:03;;;;;;;4.37;3.20;;;16.70;28.90;;;;;;5013668;28;20411;-73
2023/07/01 01:58:29;;;;;;;3.37;2.60;;;16.70;28.90;;;;;;5013536;28;20418;-73
2023/07/01 02:00:55;;;;;;;7.67;3.13;;;16.70;28.70;;;;;;5014162;28;20211;-72
2023/07/01 02:03:20;;;;;;;3.40;2.70;;;16.70;28.90;;;;;;5013138;28;20439;-72
2023/07/01 02:05:46;;;;;;;3.77;2.80;;;16.70;29.20;;;;;;5013460;28;20419;-72
2023/07/01 02:08:11;;;;;;;4.37;3.47;;;16.70;27.90;;;;;;5013422;28;20199;-71
2023/07/01 02:10:37;;;;;;;4.10;3.00;;;16.70;27.20;;;;;;5013171;28;20209;-71
2023/07/01 02:13:02;;;;;;;5.70;3.10;;;16.70;27.20;;;;;;5013050;28;20180;-71
2023/07/01 02:15:28;;;;;;;4.07;2.93;;;16.70;27.20;;;;;;5013280;28;20180;-71
2023/07/01 02:17:54;;;;;;;5.93;2.70;;;16.70;27.20;;;;;;5013386;28;20281;-71
2023/07/01 02:20:19;;;;;;;5.60;2.80;;;16.70;27.30;;;;;;5013236;28;20279;-71
2023/07/01 02:22:45;;;;;;;4.87;2.80;;;16.80;27.50;;;;;;5012977;28;20183;-71
2023/07/01 02:25:10;;;;;;;4.87;3.07;;;16.80;28.00;;;;;;5013127;28;20281;-71
2023/07/01 02:27:36;;;;;;;4.80;2.70;;;16.80;27.70;;;;;;5013098;28;20662;-71
2023/07/01 02:30:03;;;;;;;3.60;2.80;;;16.80;27.60;;;;;;5013175;28;20196;-72
2023/07/01 02:32:29;;;;;;;4.20;2.37;;;16.80;28.50;;;;;;5012675;28;20808;-71
2023/07/01 02:34:54;;;;;;;4.07;2.80;;;16.70;29.20;;;;;;5012968;28;20411;-71
2023/07/01 02:37:20;;;;;;;7.03;3.10;;;16.70;29.20;;;;;;5012419;28;20422;-70
2023/07/01 02:39:46;;;;;;;4.13;2.57;;;16.70;28.80;;;;;;5012764;28;20238;-71
2023/07/01 02:42:15;;;;;;;5.90;3.60;;;16.70;28.70;;;;;;5012523;28;20172;-71
2023/07/01 02:44:41;;;;;;;3.60;2.50;;;16.70;29.10;;;;;;5012822;28;20811;-72
2023/07/01 02:47:07;;;;;;;4.57;2.70;;;16.70;29.20;;;;;;5012910;28;20422;-71
2023/07/01 02:49:33;;;;;;;6.53;2.60;;;16.70;29.30;;;;;;5012644;28;20473;-71
2023/07/01 02:51:58;;;;;;;4.17;2.80;;;16.60;29.90;;;;;;5012305;28;20249;-71
2023/07/01 02:54:24;;;;;;;7.33;3.07;;;16.60;29.70;;;;;;5012636;28;20207;-72
2023/07/01 02:56:49;;;;;;;4.10;3.70;;;16.70;29.80;;;;;;5012496;28;20176;-72
2023/07/01 02:59:15;;;;;;;4.70;3.10;;;16.60;30.10;;;;;;5012409;28;20179;-72
2023/07/01 03:01:44;;;;;;;3.90;2.70;;;16.60;30.40;;;;;;5012244;28;20283;-71
2023/07/01 03:04:10;;;;;;;5.83;3.60;;;16.50;30.70;;;;;;5012579;28;20175;-71
2023/07/01 03:06:35;;;;;;;3.03;2.10;;;16.50;31.40;;;;;;5012420;28;20415;-71
2023/07/01 03:09:07;;;;;;;3.97;3.20;;;16.40;31.30;;;;;;5012384;28;20426;-72
2023/07/01 03:11:36;;;;;;;3.67;2.73;;;16.50;31.50;;;;;;5012056;28;20799;-71
2023/07/01 03:14:02;;;;;;;4.20;3.40;;;16.50;31.40;;;;;;5012371;28;20410;-71
2023/07/01 03:16:29;;;;;;;4.50;2.77;;;16.50;30.30;;;;;;5012302;28;20412;-71
2023/07/01 03:18:54;;;;;;;4.07;2.53;;;16.50;30.20;;;;;;5012277;28;20419;-71
2023/07/01 03:21:20;;;;;;;5.73;3.00;;;16.50;30.60;;;;;;5012151;28;20430;-71
2023/07/01 03:23:45;;;;;;;4.53;2.87;;;16.50;30.50;;;;;;5011969;28;20176;-71
2023/07/01 03:26:11;;;;;;;4.17;2.70;;;16.50;31.20;;;;;;5011019;28;20214;-71
2023/07/01 03:28:36;;;;;;;4.93;3.53;;;16.50;30.50;;;;;;5012264;28;20172;-71
2023/07/01 03:31:04;;;;;;;4.90;3.80;;;16.50;31.00;;;;;;5012121;28;20203;-72
2023/07/01 03:33:29;;;;;;;4.70;3.40;;;16.50;30.20;;;;;;5013249;28;20165;-72
2023/07/01 03:35:55;;;;;;;4.70;2.80;;;16.50;30.00;;;;;;5013406;28;20403;-71
2023/07/01 03:38:21;;;;;;;4.67;3.10;;;16.50;30.40;;;;;;5012281;28;20172;-71
2023/07/01 03:40:47;;;;;;;4.60;3.27;;;16.40;31.30;;;;;;5012018;28;20200;-71
2023/07/01 03:43:13;;;;;;;3.57;2.83;;;16.40;31.50;;;;;;5012025;28;20430;-72
2023/07/01 03:45:38;;;;;;;4.50;3.40;;;16.40;30.70;;;;;;5011993;28;20418;-70
2023/07/01 03:48:05;;;;;;;4.30;2.90;;;16.50;31.40;;;;;;5011908;28;20184;-71
2023/07/01 03:50:30;;;;;;;5.77;3.40;;;16.50;30.60;;;;;;5015169;28;20570;-71
2023/07/01 03:52:56;;;;;;;3.80;2.77;;;16.50;30.50;;;;;;5014409;28;20426;-71
2023/07/01 03:55:21;;;;;;;3.73;3.40;;;16.50;31.10;;;;;;5015845;28;20180;-72
2023/07/01 03:57:47;;;;;;;4.50;3.20;;;16.50;31.40;;;;;;5015873;28;20173;-71
2023/07/01 04:00:19;;;;;;;8.23;3.93;;;16.50;30.10;;;;;;5015728;28;20207;-70
2023/07/01 04:02:49;;;;;;;4.47;3.63;;;16.60;30.40;;;;;;5015427;28;20207;-71
2023/07/01 04:05:16;;;;;;;4.27;3.13;;;16.60;30.30;;;;;;5015618;28;20415;-71
2023/07/01 04:07:43;;;;;;;5.37;3.00;;;16.70;29.90;;;;;;5015586;28;20407;-70
2023/07/01 04:10:10;;;;;;;5.43;3.53;;;16.70;30.80;;;;;;5015525;28;20430;-70
2023/07/01 04:12:37;;;;;;;5.00;2.43;;;16.70;31.60;;;;;;5015289;28;20462;-77
2023/07/01 04:15:09;;;;;;;3.50;3.10;;;16.80;29.40;;;;;;4994949;28;20436;-71
2023/07/01 04:17:39;;;;;;;4.67;3.43;;;16.90;29.10;;;;;;4996215;28;20498;-70
2023/07/01 04:20:06;;;;;;;3.07;2.00;;;17.00;28.60;;;;;;4995587;28;20468;-72
2023/07/01 04:22:31;;;;;;;4.60;3.23;;;17.00;27.40;;;;;;4995412;28;20789;-72
2023/07/01 04:24:57;;;;;;;3.93;3.13;;;17.10;27.50;;;;;;4995516;28;20427;-71
2023/07/01 04:27:22;;;;;;;3.13;2.73;;;17.10;27.50;;;;;;4995840;28;20180;-71
2023/07/01 04:29:48;;;;;;;5.03;3.40;;;17.10;27.50;;;;;;4995599;28;20208;-70
2023/07/01 04:32:13;;;;;;;3.90;3.07;;;17.10;27.80;;;;;;5001641;28;20569;-71
2023/07/01 04:34:39;;;;;;;3.17;2.73;;;17.20;27.50;;;;;;5015085;28;20203;-70
2023/07/01 04:37:04;;;;;;;3.90;2.80;;;17.20;27.50;;;;;;5015174;28;20173;-71
2023/07/01 04:39:30;;;;;;;3.87;3.00;;;17.10;28.70;;;;;;5015172;28;20672;-71
2023/07/01 04:41:55;;;;;;;5.37;3.23;;;17.10;28.70;;;;;;5014720;28;20192;-75
2023/07/01 04:44:24;;;;;;;3.80;2.83;;;17.20;28.50;;;;;;5014782;28;20175;-74
2023/07/01 04:46:50;;;;;;;4.03;3.13;;;17.20;27.60;;;;;;5014748;28;20676;-74
2023/07/01 04:49:16;;;;;;;3.70;3.10;;;17.30;27.30;;;;;;5013268;28;20423;-72
2023/07/01 04:51:42;;;;;;;4.73;2.57;;;17.30;26.40;;;;;;5014316;28;20528;-72
2023/07/01 04:54:07;;;;;;;3.83;2.83;;;17.30;25.30;;;;;;5014619;28;20203;-71
2023/07/01 04:56:35;;;;;;;4.47;3.20;;;17.20;26.00;;;;;;5014582;28;20184;-72
2023/07/01 04:59:00;;;;;;;4.60;3.67;;;17.20;26.90;;;;;;5014650;28;20176;-71
2023/07/01 05:01:26;;;;;;;3.87;2.63;;;17.10;26.60;;;;;;5013707;28;21040;-72
2023/07/01 05:03:52;;;;;;;5.17;3.10;;;17.20;26.80;;;;;;5014340;28;20172;-72
2023/07/01 05:06:17;;;;;;;4.03;3.50;;;17.30;26.00;;;;;;5014573;28;20254;-71
2023/07/01 05:08:44;;;;;;;6.60;3.33;;;17.30;25.60;;;;;;5004043;28;20272;-72
2023/07/01 05:11:10;;;;;;;4.10;3.03;;;17.30;26.00;;;;;;4994549;28;20682;-71
2023/07/01 05:13:35;;;;;;;6.10;3.10;;;17.40;25.90;;;;;;4994468;28;20430;-71
2023/07/01 05:16:01;;;;;;;4.33;2.67;;;17.50;24.60;;;;;;4994528;28;20534;-72
2023/07/01 05:18:27;;;;;;;4.83;3.10;;;17.60;22.60;;;;;;4994607;28;20173;-72
2023/07/01 05:20:52;;;;;;;4.73;3.17;;;17.70;23.50;;;;;;4994385;28;20197;-72
2023/07/01 05:23:18;;;;;;;5.67;2.80;;;17.80;21.60;;;;;;4994335;28;20176;-72
2023/07/01 05:25:43;;;;;;;4.43;3.10;;;17.90;21.30;;;;;;4995342;28;20230;-72
2023/07/01 05:28:09;;;;;;;27.97;3.37;;;18.00;21.30;;;;;;4994989;28;20185;-73
2023/07/01 05:30:34;;;;;;;4.87;3.53;;;18.00;22.10;;;;;;4994276;28;20207;-73
2023/07/01 05:33:00;;;;;;;4.40;3.10;;;18.20;22.00;;;;;;4994201;28;20550;-73
2023/07/01 05:35:25;;;;;;;3.87;2.93;;;18.40;20.30;;;;;;4992995;28;20185;-72
2023/07/01 05:37:52;;;;;;;3.87;3.07;;;18.60;18.90;;;;;;4994234;28;20184;-73
2023/07/01 05:40:18;;;;;;;4.03;3.30;;;18.70;18.70;;;;;;4994148;28;20207;-72
2023/07/01 05:42:45;;;;;;;4.47;2.80;;;19.10;18.90;;;;;;4993976;28;20416;-72
2023/07/01 05:45:11;;;;;;;3.00;2.37;;;20.00;15.20;;;;;;4994087;28;20418;-73
2023/07/01 05:47:37;;;;;;;3.90;3.00;;;22.80;7.80;;;;;;4994138;28;20412;-72
2023/07/01 05:50:02;;;;;;;4.30;3.53;;;25.40;1.90;;;;;;4994026;28;20376;-72
2023/07/01 05:52:28;;;;;;;4.20;3.90;;;27.20;1.00;;;;;;4994570;28;20259;-72
2023/07/01 05:54:53;;;;;;;4.43;4.03;;;29.30;1.00;;;;;;4994419;28;20176;-73
2023/07/01 05:57:19;;;;;;;4.33;4.03;;;30.20;1.00;;;;;;4994712;28;20213;-72
2023/07/01 05:59:44;;;;;;;5.50;5.10;;;31.50;1.00;;;;;;4994133;28;20208;-71
2023/07/01 06:02:10;;;;;;;6.17;5.43;;;32.60;1.00;;;;;;4994742;28;20202;-71
2023/07/01 06:04:35;;;;;;;6.07;5.13;;;31.70;1.00;;;;;;4993802;28;20710;-69
2023/07/01 06:07:01;;;;;;;5.50;5.10;;;30.20;1.00;;;;;;4993759;28;20254;-71
2023/07/01 06:09:26;;;;;;;8.30;4.70;;;29.80;1.00;;;;;;5011208;28;20180;-72
2023/07/01 06:11:55;;;;;;;5.07;4.67;;;30.90;1.00;;;;;;5012076;28;20199;-73
2023/07/01 06:14:20;;;;;;;5.87;5.37;;;32.20;1.00;;;;;;5013316;28;20227;-73
2023/07/01 06:16:46;;;;;;;6.03;5.40;;;33.40;1.00;;;;;;5013018;28;20759;-72
2023/07/01 06:19:11;;;;;;;4.93;4.53;;;32.50;1.00;;;;;;5012957;28;20625;-72
2023/07/01 06:21:37;;;;;;;5.17;4.70;;;31.30;1.00;;;;;;5012695;28;20290;-72
2023/07/01 06:24:03;;;;;;;5.23;4.83;;;30.80;1.00;;;;;;5011449;28;20188;-73
2023/07/01 06:26:29;;;;;;;10.27;4.83;;;31.60;1.00;;;;;;5012830;28;20179;-73
2023/07/01 06:28:54;;;;;;;5.73;5.23;;;33.30;1.00;;;;;;5012904;28;20411;-74
2023/07/01 06:31:20;;;;;;;5.20;4.80;;;33.60;1.00;;;;;;5012531;28;20239;-72
2023/07/01 06:33:46;;;;;;;5.30;4.90;;;32.90;1.00;;;;;;5012856;28;20180;-74
2023/07/01 06:36:12;;;;;;;5.27;4.97;;;34.00;1.00;;;;;;5014194;28;20318;-72
2023/07/01 06:38:38;;;;;;;5.13;4.73;;;35.20;1.00;;;;;;5013603;28;20210;-71
2023/07/01 06:41:04;;;;;;;5.40;5.00;;;35.70;1.00;;;;;;5012525;28;20458;-73
2023/07/01 06:43:29;;;;;;;5.50;5.10;;;34.40;1.00;;;;;;5012242;28;20176;-72
2023/07/01 06:45:55;;;;;;;6.20;4.80;;;33.40;1.00;;;;;;5012394;28;20180;-72
2023/07/01 06:48:21;;;;;;;5.10;4.70;;;32.90;1.00;;;;;;5012391;28;20184;-70
2023/07/01 06:50:46;;;;;;;4.40;4.10;;;32.90;1.00;;;;;;5012193;28;20204;-72
2023/07/01 06:53:12;;;;;;;5.10;4.70;;;32.80;1.00;;;;;;5012107;28;20183;-69
2023/07/01 06:55:37;;;;;;;5.70;5.20;;;33.00;1.00;;;;;;5012341;28;20637;-73
2023/07/01 06:58:03;;;;;;;5.00;4.50;;;32.70;1.00;;;;;;5012044;28;20559;-72
2023/07/01 07:00:29;;;;;;;7.40;5.37;;;31.80;1.00;;;;;;5012033;28;20341;-72
2023/07/01 07:02:55;;;;;;;4.87;4.57;;;31.90;1.00;;;;;;5011829;28;20179;-71
2023/07/01 07:05:20;;;;;;;6.77;4.90;;;31.30;1.00;;;;;;5012210;28;20419;-71
2023/07/01 07:07:46;;;;;;;4.43;4.20;;;32.00;1.00;;;;;;5012071;28;20234;-68
2023/07/01 07:10:12;;;;;;;5.00;4.70;;;33.10;1.00;;;;;;5012070;28;20283;-69
2023/07/01 07:12:37;;;;;;;6.60;4.80;;;32.80;1.00;;;;;;5010330;28;20206;-70
2023/07/01 07:15:04;;;;;;;6.23;4.90;;;32.60;1.00;;;;;;5012271;28;20669;-78
2023/07/01 07:17:29;;;;;;;4.83;4.33;;;33.90;1.00;;;;;;5012395;28;20191;-70
2023/07/01 07:19:55;;;;;;;5.63;5.23;;;34.90;1.00;;;;;;5010346;28;20450;-71
2023/07/01 07:22:21;;;;;;;4.93;4.53;;;34.00;1.00;;;;;;5010965;28;20176;-70
2023/07/01 07:24:46;;;;;;;5.27;4.50;;;32.70;1.00;;;;;;5011838;28;20214;-71
2023/07/01 07:27:12;;;;;;;5.10;4.60;;;33.30;1.00;;;;;;5011721;28;20180;-69
2023/07/01 07:29:38;;;;;;;4.87;4.43;;;33.80;1.00;;;;;;5008917;28;20210;-71
2023/07/01 07:32:04;;;;;;;4.90;4.50;;;33.10;1.00;;;;;;5008564;28;20674;-71
2023/07/01 07:34:30;;;;;;;10.30;5.57;;;33.50;1.00;;;;;;5011247;28;20442;-71
2023/07/01 07:36:56;;;;;;;4.93;4.53;;;35.40;1.00;;;;;;5010251;28;20415;-71
2023/07/01 07:39:22;;;;;;;5.30;4.93;;;37.20;1.00;;;;;;5011598;28;20190;-70
2023/07/01 07:41:49;;;;;;;4.30;4.10;;;36.60;1.00;;;;;;5011116;28;20706;-71
2023/07/01 07:44:15;;;;;;;4.93;4.53;;;37.10;1.00;;;;;;4990601;28;20560;-71
2023/07/01 07:46:42;;;;;;;4.80;4.50;;;36.60;1.00;;;;;;4992017;28;20415;-71
2023/07/01 07:49:07;;;;;;;4.93;4.57;;;36.20;1.00;;;;;;4992014;28;20459;-71
2023/07/01 07:51:33;;;;;;;5.13;4.73;;;36.30;1.00;;;;;;4991563;28;20542;-71
2023/07/01 07:53:58;;;;;;;4.70;4.40;;;34.40;1.00;;;;;;4992673;28;20180;-70
2023/07/01 07:56:24;;;;;;;4.90;4.50;;;35.10;1.00;;;;;;5011300;28;20176;-69
2023/07/01 07:58:50;;;;;;;4.97;4.57;;;36.20;1.00;;;;;;5011749;28;20176;-69
2023/07/01 08:01:15;;;;;;;5.27;4.97;;;35.50;1.00;;;;;;5012307;22;20232;-70
2023/07/01 08:03:41;;;;;;;5.00;4.60;;;35.60;1.00;;;;;;4992004;28;20212;-70
2023/07/01 08:06:07;;;;;;;4.70;4.40;;;34.40;1.00;;;;;;4991829;28;20204;-70
2023/07/01 08:08:34;;;;;;;4.87;4.43;;;35.90;1.00;;;;;;4991920;28;20187;-68
2023/07/01 08:10:59;;;;;;;5.53;5.13;;;36.30;1.00;;;;;;4991781;28;20464;-70
2023/07/01 08:13:25;;;;;;;6.00;5.00;;;33.80;1.00;;;;;;4991790;28;20418;-69
2023/07/01 08:15:51;;;;;;;4.47;4.07;;;36.20;1.00;;;;;;4991996;28;20634;-69
2023/07/01 08:18:17;;;;;;;4.73;4.30;;;36.10;1.00;;;;;;4990538;28;20181;-70
2023/07/01 08:20:45;;;;;;;5.00;4.63;;;35.60;1.00;;;;;;4992002;28;20193;-69
2023/07/01 08:23:11;;;;;;;5.70;4.87;;;33.80;1.00;;;;;;4991656;28;20224;-70
2023/07/01 08:25:41;;;;;;;7.20;4.73;;;32.70;1.00;;;;;;4991870;28;20418;-70
2023/07/01 08:28:07;;;;;;;7.23;4.23;;;32.80;1.00;;;;;;4992000;28;20411;-69
2023/07/01 08:30:32;;;;;;;5.27;4.83;;;32.20;1.00;;;;;;4991563;28;20452;-69
2023/07/01 08:32:58;;;;;;;5.00;4.60;;;33.20;1.00;;;;;;4991451;28;20227;-69
2023/07/01 08:35:23;;;;;;;5.30;4.90;;;33.40;1.00;;;;;;4993463;28;20534;-69
2023/07/01 08:37:49;;;;;;;6.17;5.13;;;35.00;1.00;;;;;;4994314;28;20184;-69
2023/07/01 08:40:15;;;;;;;5.10;4.70;;;35.10;1.00;;;;;;4993977;28;20715;-68
2023/07/01 08:42:49;;;;;;;5.50;5.10;;;34.70;1.00;;;;;;4994731;28;20243;-69
2023/07/01 08:45:15;;;;;;;5.87;4.57;;;34.10;1.00;;;;;;4994078;28;20279;-68
2023/07/01 08:47:41;;;;;;;4.40;4.10;;;34.00;1.00;;;;;;4995318;28;20499;-69
2023/07/01 08:50:08;;;;;;;5.80;5.40;;;34.40;1.00;;;;;;4995198;28;20226;-68
2023/07/01 08:52:41;;;;;;;5.00;4.70;;;34.00;1.00;;;;;;4994319;28;20451;-69
2023/07/01 08:55:09;;;;;;;5.43;5.00;;;33.00;1.00;;;;;;4995201;28;20450;-68
2023/07/01 08:57:37;;;;;;;4.93;4.63;;;32.60;1.00;;;;;;4995310;28;20787;-69
2023/07/01 09:00:04;;;;;;;4.80;4.50;;;31.10;1.00;;;;;;4994717;28;20463;-67
2023/07/01 09:02:31;;;;;;;5.77;5.17;;;31.30;1.00;;;;;;4994799;28;20439;-69
2023/07/01 09:04:57;;;;;;;9.40;4.93;;;31.90;1.00;;;;;;4994334;28;20490;-68
2023/07/01 09:07:23;;;;;;;5.17;4.67;;;32.00;1.00;;;;;;4994915;28;20431;-69
2023/07/01 09:09:49;;;;;;;5.13;4.60;;;31.80;1.00;;;;;;4994383;28;20460;-70
2023/07/01 09:12:14;;;;;;;4.10;3.80;;;32.70;1.00;;;;;;4993184;28;20213;-68
2023/07/01 09:15:03;;;;;;;4.70;4.40;;;31.50;1.00;;;;;;4993724;28;20184;-69
2023/07/01 09:17:40;;;;;;;7.23;4.60;;;29.80;1.00;;;;;;4994497;28;20212;-69
2023/07/01 09:20:08;;;;;;;4.70;4.30;;;29.00;1.00;;;;;;4993376;28;21034;-68
2023/07/01 09:22:35;;;;;;;4.23;3.93;;;28.10;1.00;;;;;;4994188;28;20432;-68
2023/07/01 09:25:02;;;;;;;5.17;4.77;;;27.50;1.00;;;;;;4994575;28;20411;-69
2023/07/01 09:27:49;;;;;;;4.57;4.27;;;27.20;1.00;;;;;;4994433;28;20498;-69
2023/07/01 09:30:25;;;;;;;4.90;4.50;;;26.60;1.00;;;;;;4994211;28;20957;-69
2023/07/01 09:32:50;;;;;;;4.40;4.00;;;26.40;1.00;;;;;;4994244;28;20972;-68
2023/07/01 09:35:16;;;;;;;4.57;4.10;;;26.40;1.00;;;;;;4994283;28;20424;-69
2023/07/01 09:37:42;;;;;;;4.23;3.93;;;26.70;1.00;;;;;;4994300;28;20184;-69
2023/07/01 09:40:21;;;;;;;4.90;4.40;;;27.20;1.00;;;;;;4994344;28;20430;-68
2023/07/01 09:42:55;;;;;;;4.40;4.10;;;27.50;1.00;;;;;;4993707;28;20191;-69
2023/07/01 09:45:21;;;;;;;5.60;5.10;;;27.00;1.00;;;;;;4994274;28;20910;-70
2023/07/01 09:47:53;;;;;;;4.93;4.40;;;26.80;1.00;;;;;;4991690;28;20420;-72
2023/07/01 09:50:23;;;;;;;4.20;3.90;;;26.60;1.00;;;;;;4992377;28;20215;-68
2023/07/01 09:52:50;;;;;;;6.10;4.37;;;26.60;1.00;;;;;;4993896;28;20559;-68
2023/07/01 09:55:16;;;;;;;4.90;4.60;;;26.10;1.00;;;;;;4993957;28;20944;-69
2023/07/01 09:57:42;;;;;;;4.97;4.57;;;26.00;1.00;;;;;;4991625;28;20436;-68
2023/07/01 10:00:16;;;;;;;4.27;3.87;;;26.40;1.00;;;;;;4992523;28;20523;-69
2023/07/01 10:02:46;;;;;;;4.53;4.23;;;26.40;1.00;;;;;;4993656;28;20185;-69
2023/07/01 10:05:13;;;;;;;4.70;4.40;;;26.60;1.00;;;;;;4992553;28;20424;-69
2023/07/01 10:07:43;;;;;;;5.80;4.87;;;26.60;1.00;;;;;;4993503;28;20432;-70
2023/07/01 10:10:13;;;;;;;4.77;4.37;;;26.40;1.00;;;;;;4993647;28;20454;-70
2023/07/01 10:12:41;;;;;;;4.73;4.43;;;26.30;1.00;;;;;;4993542;28;20471;-68
2023/07/01 10:15:09;;;;;;;5.13;4.63;;;26.00;1.00;;;;;;4994108;28;20416;-70
2023/07/01 10:17:49;;;;;;;7.13;4.13;;;26.10;1.00;;;;;;4992489;28;20451;-70
2023/07/01 10:20:32;;;;;;;4.07;3.77;;;26.40;1.00;;;;;;4993235;28;20459;-70
2023/07/01 10:22:58;;;;;;;4.90;4.37;;;26.40;1.00;;;;;;4973751;28;20435;-70
2023/07/01 10:25:34;;;;;;;4.30;4.00;;;26.60;1.00;;;;;;4974151;28;20420;-69
2023/07/01 10:28:13;;;;;;;4.60;4.20;;;26.40;1.00;;;;;;4983357;28;20875;-69
2023/07/01 10:30:44;;;;;;;4.87;4.47;;;26.50;1.00;;;;;;4993131;28;20445;-71
2023/07/01 10:33:33;;;;;;;4.63;4.30;;;26.30;1.00;;;;;;4993184;28;20415;-68
2023/07/01 10:36:06;;;;;;;4.37;4.07;;;26.10;1.00;;;;;;4991898;28;20507;-69
2023/07/01 10:38:33;;;;;;;5.00;4.60;;;25.90;1.00;;;;;;4992571;28;20432;-68
2023/07/01 10:40:59;;;;;;;5.50;4.43;;;26.10;1.00;;;;;;4991812;28;20811;-68
2023/07/01 10:43:29;;;;;;;3.90;3.60;;;26.50;1.00;;;;;;4978811;28;20463;-69
2023/07/01 10:46:23;;;;;;;4.30;3.93;;;26.50;1.00;;;;;;4973603;28;20874;-68
2023/07/01 10:49:05;;;;;;;4.13;3.83;;;26.60;1.00;;;;;;4979416;28;20420;-69
2023/07/01 10:51:51;;;;;;;3.83;3.60;;;26.30;1.00;;;;;;4972963;28;20464;-71
2023/07/01 10:54:30;;;;;;;4.10;3.80;;;26.20;1.00;;;;;;4973491;28;20424;-71
2023/07/01 10:57:13;;;;;;;4.60;3.90;;;26.20;1.00;;;;;;4977413;28;20435;-71
2023/07/01 10:59:41;;;;;;;5.53;3.87;;;26.80;1.00;;;;;;4992366;28;20428;-70
2023/07/01 11:02:11;;;;;;;4.70;4.13;;;26.50;1.00;;;;;;4975414;28;20798;-69
2023/07/01 11:04:55;;;;;;;4.50;4.20;;;26.40;1.00;;;;;;4972019;28;20432;-70
2023/07/01 11:07:24;;;;;;;4.37;4.07;;;26.00;1.00;;;;;;4980616;28;20474;-70
2023/07/01 11:09:50;;;;;;;4.10;3.80;;;25.60;1.00;;;;;;4992690;28;20499;-70
2023/07/01 11:12:15;;;;;;;4.53;4.23;;;25.60;1.00;;;;;;4991984;28;20463;-70
2023/07/01 11:14:41;;;;;;;4.33;3.97;;;26.00;1.00;;;;;;4992594;28;20176;-70
2023/07/01 11:17:12;;;;;;;4.60;4.20;;;26.10;1.00;;;;;;4992489;28;20177;-70
2023/07/01 11:19:38;;;;;;;4.93;4.53;;;26.40;1.00;;;;;;4991226;28;20787;-70
2023/07/01 11:22:05;;;;;;;4.40;4.10;;;26.50;1.00;;;;;;4992427;28;20416;-71
2023/07/01 11:24:31;;;;;;;4.27;3.97;;;26.20;1.00;;;;;;4992964;28;20422;-70
2023/07/01 11:27:06;;;;;;;5.10;4.43;;;26.40;1.00;;;;;;4992570;28;20420;-69
2023/07/01 11:29:31;;;;;;;5.93;4.10;;;26.80;1.00;;;;;;4992420;28;20411;-69
2023/07/01 11:31:59;;;;;;;4.23;3.93;;;26.70;1.00;;;;;;4991987;28;20478;-69
2023/07/01 11:34:26;;;;;;;4.47;4.17;;;26.30;1.00;;;;;;4992574;28;20176;-69
2023/07/01 11:36:51;;;;;;;4.73;4.33;;;26.20;1.00;;;;;;4988826;28;20432;-67
2023/07/01 11:39:18;;;;;;;6.00;4.00;;;26.00;1.00;;;;;;4973615;28;20413;-70
2023/07/01 11:41:55;;;;;;;4.30;3.90;;;26.40;1.00;;;;;;4972203;28;20801;-69
2023/07/01 11:44:26;;;;;;;5.17;3.80;;;26.40;1.00;;;;;;4987775;28;20526;-69
2023/07/01 11:46:52;;;;;;;3.80;3.50;;;26.70;1.00;;;;;;4992878;28;20507;-68
2023/07/01 11:49:21;;;;;;;9.30;4.40;;;26.70;1.00;;;;;;4992551;28;20455;-68
2023/07/01 11:51:51;;;;;;;5.20;4.30;;;26.90;1.00;;;;;;4990701;28;20467;-69
2023/07/01 11:54:22;;;;;;;4.20;3.90;;;27.30;1.00;;;;;;4992444;28;20412;-68
2023/07/01 11:56:50;;;;;;;4.17;3.87;;;27.90;1.00;;;;;;4972955;28;20439;-68
2023/07/01 11:59:33;;;;;;;4.40;4.10;;;28.10;1.00;;;;;;4972861;28;20748;-68
2023/07/01 12:02:00;;;;;;;4.20;3.90;;;28.10;1.00;;;;;;4972578;28;20440;-68
2023/07/01 12:04:26;;;;;;;4.33;4.03;;;27.90;1.00;;;;;;4975428;28;20526;-69
2023/07/01 12:07:05;;;;;;;4.30;4.00;;;27.70;1.00;;;;;;4992129;28;20933;-69
2023/07/01 12:09:31;;;;;;;4.27;3.97;;;27.40;1.00;;;;;;4990815;28;20439;-69
2023/07/01 12:11:57;;;;;;;4.90;4.50;;;27.50;1.00;;;;;;4995663;28;20458;-69
2023/07/01 12:14:23;;;;;;;4.47;3.90;;;27.90;1.00;;;;;;4995742;28;20168;-69
2023/07/01 12:16:53;;;;;;;3.97;3.70;;;27.70;1.00;;;;;;4995780;28;20780;-69
2023/07/01 12:19:22;;;;;;;4.13;3.93;;;27.30;1.00;;;;;;4996027;28;20928;-69
2023/07/01 12:21:50;;;;;;;4.10;3.80;;;27.60;1.00;;;;;;4994045;28;20440;-69
2023/07/01 12:24:36;;;;;;;4.40;4.00;;;27.20;1.00;;;;;;4995639;28;20427;-68
2023/07/01 12:27:04;;;;;;;4.37;4.07;;;27.40;1.00;;;;;;4994989;28;20526;-69
2023/07/01 12:29:29;;;;;;;3.77;3.30;;;26.70;1.00;;;;;;4994056;28;20971;-68
2023/07/01 12:31:57;;;;;;;4.33;3.93;;;26.40;1.00;;;;;;4995560;28;20463;-69
2023/07/01 12:34:24;;;;;;;4.73;4.33;;;26.20;1.00;;;;;;4995622;28;20260;-70
2023/07/01 12:37:03;;;;;;;4.70;4.37;;;26.40;1.00;;;;;;4994159;28;20510;-71
2023/07/01 12:39:31;;;;;;;4.30;4.00;;;26.40;1.00;;;;;;4994062;28;20951;-72
2023/07/01 12:41:58;;;;;;;4.23;3.93;;;26.40;1.00;;;;;;4993961;28;20434;-71
2023/07/01 12:44:24;;;;;;;4.67;4.37;;;26.10;1.00;;;;;;4994399;28;20423;-68
2023/07/01 12:46:50;;;;;;;4.40;4.00;;;25.90;1.00;;;;;;4995426;28;20935;-68
2023/07/01 12:49:16;;;;;;;5.00;4.60;;;25.70;1.00;;;;;;4995622;28;20180;-68
2023/07/01 12:51:43;;;;;;;4.13;3.83;;;25.10;1.00;;;;;;4994195;28;20467;-68
2023/07/01 12:54:09;;;;;;;4.60;4.30;;;24.90;1.00;;;;;;4994885;28;20175;-68
2023/07/01 12:56:34;;;;;;;4.30;3.90;;;25.10;1.00;;;;;;4995097;28;20428;-68